University of Illinois Willard Airport
KCMI : now visible

Airfield :











YOU CAN JOIN US ON...

 
LOGIN :

Register | Disclaimer

   EN    FR    IT 

 









Legend :    VFR   Marginal VFR   IFR   Intensive IFR   Very Intensive IFR
Visi :
Ceiling :
>= 8 km
>= 3000ft
5 to 8 km
1000 to 3000 ft
1500m to 5 km
500 to 1000 ft
800 to 1500m
200 to 500 ft
< 800m
< 200 ft
Symbols :   Thunderstorms  Fog  Heavy snow  Heavy precipitations  Wind > 20 kt






- Airport Elevation : 755 ft
- IATA code : CMI


KCMI - University of Illinois Willard

CURRENT METAR :
  • 042153Z 33009KT 10SM FEW049 22/11 A3008 RMK AO2 SLP182 T02170111

EXPIRED METARs :
  • 042053Z 31010KT 10SM CLR 22/12 A3008 RMK AO2 SLP184 T02170117 50001
  • 041953Z 32008KT 10SM FEW050 23/11 A3009 RMK AO2 SLP186 T02280111

TAF KCMI
Valid from the 04 at 18:00 until the 05 at 18:00 UTC


041720Z 0418/0518 35011KT P6SM SCT035
FM050300 35003KT P6SM FEW040
KZAU FIR / North America



MET'MAP, your aeronautical weather chart ! - Copyright ORBIFLY December 2007 - Disclaimer

ORBIFLY MET'MAP TEAM :

Programming & Development : Alexandra Zaïnal
Concept & original design : Baudouin d'Aumeries
Assistance for programming : Marc-Olivier Méhu
Technical & hardware support : Manuel Goepfert

Contact : metmap@orbifly.com




SOURCES & CREDITS :

   NOAA       Earth
Advisory